Aeroporto :
LOGIN :

Iscrizione | Disclaimer

   EN    FR    IT 

 










Sommario :    VFR   VFR Marginale   IFR   IFR Intensivo   IFR Molto Intensivo
Visibilità : 
Base nubi : 
>= 8 km
>= 3000ft
5 / 8 km
1000 / 3000 ft
1500m / 5 km
500 / 1000 ft
800 / 1500m
200 / 500 ft
< 800m
< 200 ft
Simboli :   Temporali  Nebbia  Neve Forte  Precipitazioni Forti  Vento > 20 kt
SIGMETs :   Varie  Temporali  Ghiacco  Turbolenza  Onda orograficha  Ceneri Vulcaniche






- Altitudine del aeroporto : 1260 ft
- Codice IATA : LDE


LFBT - Tarbes / Ossun

ULTIMO METAR :
  • 221600Z AUTO 30009KT CAVOK 17/06 Q1033 NOSIG

METARs OBSOLETI :
  • 221530Z AUTO 31009KT CAVOK 17/07 Q1033 NOSIG
  • 221500Z AUTO 32011KT CAVOK 17/05 Q1032 NOSIG
  • 221430Z AUTO 31007KT 290V350 CAVOK 18/06 Q1032 NOSIG
  • 221400Z AUTO 31007KT 280V340 CAVOK 18/05 Q1032 NOSIG
  • 221330Z AUTO 26007KT 200V320 CAVOK 18/04 Q1032 NOSIG

TAF TAF LFBT
Valido dal 22 a 12 ore il 23 a 12 ore UTC


221100Z 2212/2312 VRB03KT CAVOK
TEMPO 2213/2216 30010KT
BECMG 2222/2224 VRB02KT 0800 FG VV///
BECMG 2306/2308 CAVOK



MetMap, La meteo Aeronautica in un colpo d'occhio ! - Copyright ORBIFLY Dicembre 2007 - Disclaimer

ORBIFLY MET'MAP TEAM :

Programmazione e sviluppo : Alexandra Zaïnal
Concezione : Baudouin d'Aumeries
Aiuto per la programmazione : Marc-Olivier Méhu
Supporto tecnico e logistico : Manuel Goepfert
Aiuto per la traduzione : Arnaldo La Scala

Contatto : metmap@orbifly.com




FONTI E CREDITI :

   NOAA